<?xml version="1.0" encoding="UTF-8" standalone="no" ?>
<gpx xmlns="http://www.topografix.com/GPX/1/1" xmlns:xsi="http://www.w3.org/2001/XMLSchema-instance" xsi:schemaLocation="http://www.topografix.com/GPX/1/1 http://www.topografix.com/GPX/1/1/gpx.xsd" version="1.1" creator="VisuGPX - https://www.visugpx.com">
  <metadata>
    <name>Oz en Oisans vers l'Alpette</name>
  </metadata>
  <trk>
    <name><![CDATA[Oz en Oisans vers l'Alpette 2100m]]></name>
    <extensions>
      <line xmlns="http://www.topografix.com/GPX/gpx_style/0/2">
        <color>0000FF</color>
        <width>4</width>
      </line>
    </extensions>
    <trkseg>
      <trkpt lat="45.13324" lon="6.07553">
        <ele>1421.2308336794</ele>
        <time>2020-02-09T08:26:43Z</time>
      </trkpt>
      <trkpt lat="45.13333" lon="6.07575">
        <ele>1387.2303448468</ele>
        <time>2020-02-09T08:30:28Z</time>
      </trkpt>
      <trkpt lat="45.13356" lon="6.07584">
        <ele>1391.2308878265</ele>
        <time>2020-02-09T08:30:57Z</time>
      </trkpt>
      <trkpt lat="45.13373" lon="6.07591">
        <ele>1391.2312717177</ele>
        <time>2020-02-09T08:31:35Z</time>
      </trkpt>
      <trkpt lat="45.1339" lon="6.07594">
        <ele>1399.2318250909</ele>
        <time>2020-02-09T08:32:05Z</time>
      </trkpt>
      <trkpt lat="45.13419" lon="6.07608">
        <ele>1409.2324487045</ele>
        <time>2020-02-09T08:32:35Z</time>
      </trkpt>
      <trkpt lat="45.13435" lon="6.07619">
        <ele>1415.2326679751</ele>
        <time>2020-02-09T08:33:14Z</time>
      </trkpt>
      <trkpt lat="45.13454" lon="6.07627">
        <ele>1422.2330637686</ele>
        <time>2020-02-09T08:33:44Z</time>
      </trkpt>
      <trkpt lat="45.13469" lon="6.07654">
        <ele>1420.232604105</ele>
        <time>2020-02-09T08:34:14Z</time>
      </trkpt>
      <trkpt lat="45.1348" lon="6.07682">
        <ele>1420.2318911403</ele>
        <time>2020-02-09T08:34:44Z</time>
      </trkpt>
      <trkpt lat="45.1349" lon="6.07712">
        <ele>1421.2311191671</ele>
        <time>2020-02-09T08:35:13Z</time>
      </trkpt>
      <trkpt lat="45.13501" lon="6.07737">
        <ele>1424.2305760197</ele>
        <time>2020-02-09T08:35:43Z</time>
      </trkpt>
      <trkpt lat="45.13513" lon="6.07755">
        <ele>1420.2303250656</ele>
        <time>2020-02-09T08:36:27Z</time>
      </trkpt>
      <trkpt lat="45.13525" lon="6.07736">
        <ele>1426.2315582111</ele>
        <time>2020-02-09T08:37:21Z</time>
      </trkpt>
      <trkpt lat="45.13543" lon="6.07742">
        <ele>1425.2320275977</ele>
        <time>2020-02-09T08:37:51Z</time>
      </trkpt>
      <trkpt lat="45.13558" lon="6.07761">
        <ele>1427.2318926491</ele>
        <time>2020-02-09T08:38:20Z</time>
      </trkpt>
      <trkpt lat="45.13575" lon="6.07763">
        <ele>1421.2325182743</ele>
        <time>2020-02-09T08:38:52Z</time>
      </trkpt>
      <trkpt lat="45.13588" lon="6.07746">
        <ele>1419.2336660922</ele>
        <time>2020-02-09T08:39:30Z</time>
      </trkpt>
      <trkpt lat="45.13612" lon="6.07747">
        <ele>1422.2345953099</ele>
        <time>2020-02-09T08:40:00Z</time>
      </trkpt>
      <trkpt lat="45.13629" lon="6.07746">
        <ele>1426.2353272177</ele>
        <time>2020-02-09T08:40:28Z</time>
      </trkpt>
      <trkpt lat="45.13655" lon="6.07756">
        <ele>1428.2359756418</ele>
        <time>2020-02-09T08:40:58Z</time>
      </trkpt>
      <trkpt lat="45.13679" lon="6.07769">
        <ele>1426.2364011072</ele>
        <time>2020-02-09T08:41:27Z</time>
      </trkpt>
      <trkpt lat="45.137" lon="6.07772">
        <ele>1418.2371271476</ele>
        <time>2020-02-09T08:41:56Z</time>
      </trkpt>
      <trkpt lat="45.13721" lon="6.07766">
        <ele>1417.2381889671</ele>
        <time>2020-02-09T08:42:25Z</time>
      </trkpt>
      <trkpt lat="45.13718" lon="6.07742">
        <ele>1412.2390204519</ele>
        <time>2020-02-09T08:45:48Z</time>
      </trkpt>
      <trkpt lat="45.13715" lon="6.07717">
        <ele>1412.239957381</ele>
        <time>2020-02-09T08:46:17Z</time>
      </trkpt>
      <trkpt lat="45.1372" lon="6.07692">
        <ele>1412.2411018461</ele>
        <time>2020-02-09T08:46:56Z</time>
      </trkpt>
      <trkpt lat="45.13719" lon="6.07667">
        <ele>1421.2420811877</ele>
        <time>2020-02-09T08:47:42Z</time>
      </trkpt>
      <trkpt lat="45.13724" lon="6.07643">
        <ele>1429.2432564981</ele>
        <time>2020-02-09T08:48:15Z</time>
      </trkpt>
      <trkpt lat="45.13738" lon="6.07628">
        <ele>1441.2444173917</ele>
        <time>2020-02-09T08:49:26Z</time>
      </trkpt>
      <trkpt lat="45.13749" lon="6.07609">
        <ele>1440.2456287444</ele>
        <time>2020-02-09T08:50:02Z</time>
      </trkpt>
      <trkpt lat="45.13765" lon="6.07596">
        <ele>1447.2467584573</ele>
        <time>2020-02-09T08:50:36Z</time>
      </trkpt>
      <trkpt lat="45.13782" lon="6.0759">
        <ele>1451.247678455</ele>
        <time>2020-02-09T08:51:28Z</time>
      </trkpt>
      <trkpt lat="45.13798" lon="6.07578">
        <ele>1458.2487805076</ele>
        <time>2020-02-09T08:52:04Z</time>
      </trkpt>
      <trkpt lat="45.13807" lon="6.07557">
        <ele>1458.2500094622</ele>
        <time>2020-02-09T08:52:59Z</time>
      </trkpt>
      <trkpt lat="45.1382" lon="6.07539">
        <ele>1460.2512359023</ele>
        <time>2020-02-09T08:53:37Z</time>
      </trkpt>
      <trkpt lat="45.13834" lon="6.07524">
        <ele>1461.2524222769</ele>
        <time>2020-02-09T08:54:10Z</time>
      </trkpt>
      <trkpt lat="45.13846" lon="6.07507">
        <ele>1467.2535694242</ele>
        <time>2020-02-09T08:54:54Z</time>
      </trkpt>
      <trkpt lat="45.1386" lon="6.0749">
        <ele>1471.2547858059</ele>
        <time>2020-02-09T08:55:33Z</time>
      </trkpt>
      <trkpt lat="45.13866" lon="6.07467">
        <ele>1475.2559775449</ele>
        <time>2020-02-09T08:56:14Z</time>
      </trkpt>
      <trkpt lat="45.13884" lon="6.07444">
        <ele>1469.2575895526</ele>
        <time>2020-02-09T08:56:43Z</time>
      </trkpt>
      <trkpt lat="45.13897" lon="6.07429">
        <ele>1475.2587480992</ele>
        <time>2020-02-09T08:57:26Z</time>
      </trkpt>
      <trkpt lat="45.1391" lon="6.07411">
        <ele>1476.2599534169</ele>
        <time>2020-02-09T08:59:41Z</time>
      </trkpt>
      <trkpt lat="45.1392" lon="6.0739">
        <ele>1473.2611942738</ele>
        <time>2020-02-09T09:00:10Z</time>
      </trkpt>
      <trkpt lat="45.13933" lon="6.07374">
        <ele>1469.2623514794</ele>
        <time>2020-02-09T09:02:04Z</time>
      </trkpt>
      <trkpt lat="45.1395" lon="6.07352">
        <ele>1472.2639234215</ele>
        <time>2020-02-09T09:02:33Z</time>
      </trkpt>
      <trkpt lat="45.13964" lon="6.07338">
        <ele>1483.2650740892</ele>
        <time>2020-02-09T09:03:19Z</time>
      </trkpt>
      <trkpt lat="45.1398" lon="6.07324">
        <ele>1483.2662420236</ele>
        <time>2020-02-09T09:03:48Z</time>
      </trkpt>
      <trkpt lat="45.13998" lon="6.07329">
        <ele>1494.2667737715</ele>
        <time>2020-02-09T09:05:04Z</time>
      </trkpt>
      <trkpt lat="45.14014" lon="6.07314">
        <ele>1492.2680054083</ele>
        <time>2020-02-09T09:05:33Z</time>
      </trkpt>
      <trkpt lat="45.14026" lon="6.07284">
        <ele>1490.2696769275</ele>
        <time>2020-02-09T09:06:02Z</time>
      </trkpt>
      <trkpt lat="45.14039" lon="6.07299">
        <ele>1491.2695776857</ele>
        <time>2020-02-09T09:06:40Z</time>
      </trkpt>
      <trkpt lat="45.14046" lon="6.07322">
        <ele>1494.2689696625</ele>
        <time>2020-02-09T09:07:11Z</time>
      </trkpt>
      <trkpt lat="45.14048" lon="6.07347">
        <ele>1500.2680416182</ele>
        <time>2020-02-09T09:08:54Z</time>
      </trkpt>
      <trkpt lat="45.14052" lon="6.0737">
        <ele>1502.2672518753</ele>
        <time>2020-02-09T09:09:38Z</time>
      </trkpt>
      <trkpt lat="45.14058" lon="6.07391">
        <ele>1510.266671177</ele>
        <time>2020-02-09T09:10:29Z</time>
      </trkpt>
      <trkpt lat="45.14065" lon="6.07414">
        <ele>1512.2660155445</ele>
        <time>2020-02-09T09:11:16Z</time>
      </trkpt>
      <trkpt lat="45.14048" lon="6.07422">
        <ele>1514.2650336884</ele>
        <time>2020-02-09T09:12:37Z</time>
      </trkpt>
      <trkpt lat="45.14031" lon="6.07414">
        <ele>1519.2646918744</ele>
        <time>2020-02-09T09:13:30Z</time>
      </trkpt>
      <trkpt lat="45.14029" lon="6.07438">
        <ele>1524.2636372633</ele>
        <time>2020-02-09T09:14:32Z</time>
      </trkpt>
      <trkpt lat="45.14014" lon="6.07451">
        <ele>1528.2625181116</ele>
        <time>2020-02-09T09:15:01Z</time>
      </trkpt>
      <trkpt lat="45.14005" lon="6.07472">
        <ele>1537.2613174878</ele>
        <time>2020-02-09T09:15:34Z</time>
      </trkpt>
      <trkpt lat="45.13993" lon="6.0749">
        <ele>1536.2601026148</ele>
        <time>2020-02-09T09:16:07Z</time>
      </trkpt>
      <trkpt lat="45.13998" lon="6.07514">
        <ele>1538.2593393587</ele>
        <time>2020-02-09T09:17:08Z</time>
      </trkpt>
      <trkpt lat="45.14004" lon="6.07538">
        <ele>1543.2586553954</ele>
        <time>2020-02-09T09:17:53Z</time>
      </trkpt>
      <trkpt lat="45.14" lon="6.07562">
        <ele>1553.2575228326</ele>
        <time>2020-02-09T09:18:41Z</time>
      </trkpt>
      <trkpt lat="45.13991" lon="6.07583">
        <ele>1560.2563171797</ele>
        <time>2020-02-09T09:19:18Z</time>
      </trkpt>
      <trkpt lat="45.13992" lon="6.07608">
        <ele>1557.2553799152</ele>
        <time>2020-02-09T09:19:53Z</time>
      </trkpt>
      <trkpt lat="45.1398" lon="6.07625">
        <ele>1563.2541893497</ele>
        <time>2020-02-09T09:20:24Z</time>
      </trkpt>
      <trkpt lat="45.13979" lon="6.07649">
        <ele>1573.2532071583</ele>
        <time>2020-02-09T09:20:58Z</time>
      </trkpt>
      <trkpt lat="45.13982" lon="6.07674">
        <ele>1572.2523136474</ele>
        <time>2020-02-09T09:21:27Z</time>
      </trkpt>
      <trkpt lat="45.13978" lon="6.07699">
        <ele>1576.2511609681</ele>
        <time>2020-02-09T09:22:12Z</time>
      </trkpt>
      <trkpt lat="45.13967" lon="6.07719">
        <ele>1579.249919273</ele>
        <time>2020-02-09T09:28:17Z</time>
      </trkpt>
      <trkpt lat="45.13967" lon="6.07744">
        <ele>1578.2488894723</ele>
        <time>2020-02-09T09:35:10Z</time>
      </trkpt>
      <trkpt lat="45.13958" lon="6.07766">
        <ele>1584.2476569973</ele>
        <time>2020-02-09T09:35:48Z</time>
      </trkpt>
      <trkpt lat="45.13952" lon="6.07789">
        <ele>1587.2464909069</ele>
        <time>2020-02-09T09:36:26Z</time>
      </trkpt>
      <trkpt lat="45.13954" lon="6.07814">
        <ele>1593.2456374615</ele>
        <time>2020-02-09T09:38:49Z</time>
      </trkpt>
      <trkpt lat="45.1396" lon="6.07837">
        <ele>1599.2449213117</ele>
        <time>2020-02-09T09:39:50Z</time>
      </trkpt>
      <trkpt lat="45.13977" lon="6.07843">
        <ele>1599.2453598529</ele>
        <time>2020-02-09T09:41:37Z</time>
      </trkpt>
      <trkpt lat="45.1398" lon="6.07868">
        <ele>1602.244476065</ele>
        <time>2020-02-09T09:42:37Z</time>
      </trkpt>
      <trkpt lat="45.13982" lon="6.07893">
        <ele>1605.2435424887</ele>
        <time>2020-02-09T09:43:06Z</time>
      </trkpt>
      <trkpt lat="45.13981" lon="6.07918">
        <ele>1611.2425257638</ele>
        <time>2020-02-09T09:43:40Z</time>
      </trkpt>
      <trkpt lat="45.13983" lon="6.07943">
        <ele>1613.2415977195</ele>
        <time>2020-02-09T09:44:17Z</time>
      </trkpt>
      <trkpt lat="45.1398" lon="6.07967">
        <ele>1617.2405028753</ele>
        <time>2020-02-09T09:45:04Z</time>
      </trkpt>
      <trkpt lat="45.13981" lon="6.07992">
        <ele>1619.2395429797</ele>
        <time>2020-02-09T09:45:43Z</time>
      </trkpt>
      <trkpt lat="45.13976" lon="6.08017">
        <ele>1621.2383822538</ele>
        <time>2020-02-09T09:46:14Z</time>
      </trkpt>
      <trkpt lat="45.13981" lon="6.08039">
        <ele>1622.2376877293</ele>
        <time>2020-02-09T09:46:55Z</time>
      </trkpt>
      <trkpt lat="45.13995" lon="6.08055">
        <ele>1629.2376084365</ele>
        <time>2020-02-09T09:47:36Z</time>
      </trkpt>
      <trkpt lat="45.13993" lon="6.08079">
        <ele>1633.2365318649</ele>
        <time>2020-02-09T09:48:43Z</time>
      </trkpt>
      <trkpt lat="45.14005" lon="6.08095">
        <ele>1644.2363935634</ele>
        <time>2020-02-09T09:49:37Z</time>
      </trkpt>
      <trkpt lat="45.14014" lon="6.08117">
        <ele>1650.2358504161</ele>
        <time>2020-02-09T09:50:19Z</time>
      </trkpt>
      <trkpt lat="45.14017" lon="6.08142">
        <ele>1659.2350098789</ele>
        <time>2020-02-09T09:51:40Z</time>
      </trkpt>
      <trkpt lat="45.14005" lon="6.08161">
        <ele>1665.2337720394</ele>
        <time>2020-02-09T09:53:20Z</time>
      </trkpt>
      <trkpt lat="45.13995" lon="6.08181">
        <ele>1672.2325279973</ele>
        <time>2020-02-09T09:54:37Z</time>
      </trkpt>
      <trkpt lat="45.13982" lon="6.082">
        <ele>1675.2312995456</ele>
        <time>2020-02-09T09:55:48Z</time>
      </trkpt>
      <trkpt lat="45.13978" lon="6.08224">
        <ele>1682.2301497161</ele>
        <time>2020-02-09T09:56:32Z</time>
      </trkpt>
      <trkpt lat="45.13973" lon="6.08248">
        <ele>1687.2290027365</ele>
        <time>2020-02-09T09:57:41Z</time>
      </trkpt>
      <trkpt lat="45.13974" lon="6.08273">
        <ele>1697.228028927</ele>
        <time>2020-02-09T09:58:42Z</time>
      </trkpt>
      <trkpt lat="45.13966" lon="6.08295">
        <ele>1704.2268341705</ele>
        <time>2020-02-09T09:59:40Z</time>
      </trkpt>
      <trkpt lat="45.1397" lon="6.0832">
        <ele>1707.2259911187</ele>
        <time>2020-02-09T10:00:34Z</time>
      </trkpt>
      <trkpt lat="45.13976" lon="6.08344">
        <ele>1719.2252888829</ele>
        <time>2020-02-09T10:01:23Z</time>
      </trkpt>
      <trkpt lat="45.13987" lon="6.08363">
        <ele>1715.2249717116</ele>
        <time>2020-02-09T10:02:08Z</time>
      </trkpt>
      <trkpt lat="45.13994" lon="6.08387">
        <ele>1720.2242634408</ele>
        <time>2020-02-09T10:02:53Z</time>
      </trkpt>
      <trkpt lat="45.14006" lon="6.08404">
        <ele>1724.2241018377</ele>
        <time>2020-02-09T10:05:41Z</time>
      </trkpt>
      <trkpt lat="45.14019" lon="6.08422">
        <ele>1726.2238627858</ele>
        <time>2020-02-09T10:06:10Z</time>
      </trkpt>
      <trkpt lat="45.14024" lon="6.08446">
        <ele>1730.2231012061</ele>
        <time>2020-02-09T10:07:03Z</time>
      </trkpt>
      <trkpt lat="45.14038" lon="6.08462">
        <ele>1731.2230364978</ele>
        <time>2020-02-09T10:07:36Z</time>
      </trkpt>
      <trkpt lat="45.14052" lon="6.08478">
        <ele>1734.2229761481</ele>
        <time>2020-02-09T10:08:15Z</time>
      </trkpt>
      <trkpt lat="45.14065" lon="6.08494">
        <ele>1738.222824771</ele>
        <time>2020-02-09T10:09:06Z</time>
      </trkpt>
      <trkpt lat="45.14078" lon="6.08512">
        <ele>1738.2226455659</ele>
        <time>2020-02-09T10:09:56Z</time>
      </trkpt>
      <trkpt lat="45.1409" lon="6.08531">
        <ele>1739.2223315798</ele>
        <time>2020-02-09T10:10:30Z</time>
      </trkpt>
      <trkpt lat="45.14105" lon="6.08544">
        <ele>1743.2224388681</ele>
        <time>2020-02-09T10:11:06Z</time>
      </trkpt>
      <trkpt lat="45.14122" lon="6.08552">
        <ele>1746.2228105217</ele>
        <time>2020-02-09T10:11:41Z</time>
      </trkpt>
      <trkpt lat="45.14135" lon="6.08569">
        <ele>1750.222650595</ele>
        <time>2020-02-09T10:12:35Z</time>
      </trkpt>
      <trkpt lat="45.14151" lon="6.0858">
        <ele>1751.2228237651</ele>
        <time>2020-02-09T10:13:12Z</time>
      </trkpt>
      <trkpt lat="45.14165" lon="6.08596">
        <ele>1754.2227721326</ele>
        <time>2020-02-09T10:13:55Z</time>
      </trkpt>
      <trkpt lat="45.1418" lon="6.0861">
        <ele>1757.2227753177</ele>
        <time>2020-02-09T10:14:49Z</time>
      </trkpt>
      <trkpt lat="45.14193" lon="6.08627">
        <ele>1765.2226412073</ele>
        <time>2020-02-09T10:15:43Z</time>
      </trkpt>
      <trkpt lat="45.14181" lon="6.08645">
        <ele>1778.2214367278</ele>
        <time>2020-02-09T10:18:34Z</time>
      </trkpt>
      <trkpt lat="45.1419" lon="6.08666">
        <ele>1785.2209661677</ele>
        <time>2020-02-09T10:20:29Z</time>
      </trkpt>
      <trkpt lat="45.14207" lon="6.08674">
        <ele>1786.2212965824</ele>
        <time>2020-02-09T10:21:21Z</time>
      </trkpt>
      <trkpt lat="45.1422" lon="6.0869">
        <ele>1790.2212266773</ele>
        <time>2020-02-09T10:22:08Z</time>
      </trkpt>
      <trkpt lat="45.14235" lon="6.08705">
        <ele>1796.2211718597</ele>
        <time>2020-02-09T10:23:05Z</time>
      </trkpt>
      <trkpt lat="45.14249" lon="6.08719">
        <ele>1797.2211822532</ele>
        <time>2020-02-09T10:24:54Z</time>
      </trkpt>
      <trkpt lat="45.14265" lon="6.08729">
        <ele>1799.221423652</ele>
        <time>2020-02-09T10:26:20Z</time>
      </trkpt>
      <trkpt lat="45.14279" lon="6.08746">
        <ele>1802.2213190459</ele>
        <time>2020-02-09T10:27:43Z</time>
      </trkpt>
      <trkpt lat="45.14263" lon="6.08756">
        <ele>1816.2202444859</ele>
        <time>2020-02-09T10:29:07Z</time>
      </trkpt>
      <trkpt lat="45.14245" lon="6.08764">
        <ele>1820.2192456983</ele>
        <time>2020-02-09T10:31:47Z</time>
      </trkpt>
      <trkpt lat="45.14228" lon="6.08764">
        <ele>1826.2185712904</ele>
        <time>2020-02-09T10:32:21Z</time>
      </trkpt>
      <trkpt lat="45.1421" lon="6.08766">
        <ele>1828.2177562341</ele>
        <time>2020-02-09T10:33:01Z</time>
      </trkpt>
      <trkpt lat="45.14193" lon="6.08768">
        <ele>1832.2169902958</ele>
        <time>2020-02-09T10:33:39Z</time>
      </trkpt>
      <trkpt lat="45.14175" lon="6.08772">
        <ele>1837.2161083519</ele>
        <time>2020-02-09T10:34:30Z</time>
      </trkpt>
      <trkpt lat="45.14157" lon="6.0877">
        <ele>1842.2154792063</ele>
        <time>2020-02-09T10:35:17Z</time>
      </trkpt>
      <trkpt lat="45.1414" lon="6.08771">
        <ele>1849.2147436105</ele>
        <time>2020-02-09T10:36:01Z</time>
      </trkpt>
      <trkpt lat="45.14122" lon="6.08771">
        <ele>1853.2140445597</ele>
        <time>2020-02-09T10:36:38Z</time>
      </trkpt>
      <trkpt lat="45.14104" lon="6.08767">
        <ele>1858.2134774402</ele>
        <time>2020-02-09T10:37:18Z</time>
      </trkpt>
      <trkpt lat="45.14087" lon="6.0877">
        <ele>1866.2126895413</ele>
        <time>2020-02-09T10:38:10Z</time>
      </trkpt>
      <trkpt lat="45.14069" lon="6.08768">
        <ele>1866.2120469846</ele>
        <time>2020-02-09T10:38:41Z</time>
      </trkpt>
      <trkpt lat="45.14052" lon="6.08762">
        <ele>1871.2116037495</ele>
        <time>2020-02-09T10:39:15Z</time>
      </trkpt>
      <trkpt lat="45.14034" lon="6.08765">
        <ele>1877.2107658945</ele>
        <time>2020-02-09T10:39:53Z</time>
      </trkpt>
      <trkpt lat="45.14017" lon="6.08761">
        <ele>1882.2102616392</ele>
        <time>2020-02-09T10:40:50Z</time>
      </trkpt>
      <trkpt lat="45.14001" lon="6.08753">
        <ele>1889.209915299</ele>
        <time>2020-02-09T10:41:25Z</time>
      </trkpt>
      <trkpt lat="45.13984" lon="6.08745">
        <ele>1892.2095662765</ele>
        <time>2020-02-09T10:42:00Z</time>
      </trkpt>
      <trkpt lat="45.13969" lon="6.08759">
        <ele>1899.2084246613</ele>
        <time>2020-02-09T10:44:52Z</time>
      </trkpt>
      <trkpt lat="45.13971" lon="6.08784">
        <ele>1903.2074530311</ele>
        <time>2020-02-09T10:45:27Z</time>
      </trkpt>
      <trkpt lat="45.13954" lon="6.08777">
        <ele>1906.2070610933</ele>
        <time>2020-02-09T10:46:01Z</time>
      </trkpt>
      <trkpt lat="45.13936" lon="6.08774">
        <ele>1913.2064768746</ele>
        <time>2020-02-09T10:46:40Z</time>
      </trkpt>
      <trkpt lat="45.13919" lon="6.08775">
        <ele>1918.2057664245</ele>
        <time>2020-02-09T10:47:14Z</time>
      </trkpt>
      <trkpt lat="45.13901" lon="6.08779">
        <ele>1922.2049109675</ele>
        <time>2020-02-09T10:47:47Z</time>
      </trkpt>
      <trkpt lat="45.13884" lon="6.08774">
        <ele>1928.2044243142</ele>
        <time>2020-02-09T10:48:25Z</time>
      </trkpt>
      <trkpt lat="45.13878" lon="6.08797">
        <ele>1934.2032134645</ele>
        <time>2020-02-09T10:49:01Z</time>
      </trkpt>
      <trkpt lat="45.13876" lon="6.08822">
        <ele>1938.2021420896</ele>
        <time>2020-02-09T10:49:30Z</time>
      </trkpt>
      <trkpt lat="45.13876" lon="6.08847">
        <ele>1942.2011712976</ele>
        <time>2020-02-09T10:50:00Z</time>
      </trkpt>
      <trkpt lat="45.1388" lon="6.08871">
        <ele>1944.2003664672</ele>
        <time>2020-02-09T10:50:30Z</time>
      </trkpt>
      <trkpt lat="45.13889" lon="6.08893">
        <ele>1948.199856177</ele>
        <time>2020-02-09T10:51:04Z</time>
      </trkpt>
      <trkpt lat="45.13897" lon="6.08916">
        <ele>1951.1992478184</ele>
        <time>2020-02-09T10:51:37Z</time>
      </trkpt>
      <trkpt lat="45.13904" lon="6.08939">
        <ele>1956.1985650286</ele>
        <time>2020-02-09T10:52:11Z</time>
      </trkpt>
      <trkpt lat="45.13911" lon="6.08962">
        <ele>1962.1979502998</ele>
        <time>2020-02-09T10:52:42Z</time>
      </trkpt>
      <trkpt lat="45.13919" lon="6.08985">
        <ele>1967.1973603815</ele>
        <time>2020-02-09T10:53:16Z</time>
      </trkpt>
      <trkpt lat="45.13901" lon="6.08984">
        <ele>1969.1966975406</ele>
        <time>2020-02-09T10:53:50Z</time>
      </trkpt>
      <trkpt lat="45.13883" lon="6.08987">
        <ele>1973.1958583444</ele>
        <time>2020-02-09T10:54:21Z</time>
      </trkpt>
      <trkpt lat="45.13867" lon="6.08994">
        <ele>1980.1949125305</ele>
        <time>2020-02-09T10:55:04Z</time>
      </trkpt>
      <trkpt lat="45.13856" lon="6.09014">
        <ele>1987.1936664768</ele>
        <time>2020-02-09T10:55:57Z</time>
      </trkpt>
      <trkpt lat="45.13867" lon="6.09033">
        <ele>1991.1933880299</ele>
        <time>2020-02-09T10:56:33Z</time>
      </trkpt>
      <trkpt lat="45.13877" lon="6.09054">
        <ele>1995.1929354072</ele>
        <time>2020-02-09T10:57:05Z</time>
      </trkpt>
      <trkpt lat="45.13887" lon="6.09073">
        <ele>1999.192547325</ele>
        <time>2020-02-09T10:57:41Z</time>
      </trkpt>
      <trkpt lat="45.13898" lon="6.09094">
        <ele>2008.1921659485</ele>
        <time>2020-02-09T10:58:17Z</time>
      </trkpt>
      <trkpt lat="45.13903" lon="6.09117">
        <ele>2013.1914268322</ele>
        <time>2020-02-09T10:58:56Z</time>
      </trkpt>
      <trkpt lat="45.13892" lon="6.09138">
        <ele>2020.1901918426</ele>
        <time>2020-02-09T10:59:47Z</time>
      </trkpt>
      <trkpt lat="45.13902" lon="6.09158">
        <ele>2022.1897254735</ele>
        <time>2020-02-09T11:00:20Z</time>
      </trkpt>
      <trkpt lat="45.13909" lon="6.09181">
        <ele>2031.1891151033</ele>
        <time>2020-02-09T11:00:51Z</time>
      </trkpt>
      <trkpt lat="45.13914" lon="6.09205">
        <ele>2038.1883892305</ele>
        <time>2020-02-09T11:01:36Z</time>
      </trkpt>
      <trkpt lat="45.13906" lon="6.09232">
        <ele>2040.1869525723</ele>
        <time>2020-02-09T11:02:05Z</time>
      </trkpt>
      <trkpt lat="45.13906" lon="6.09269">
        <ele>2038.1854998209</ele>
        <time>2020-02-09T11:02:35Z</time>
      </trkpt>
      <trkpt lat="45.13908" lon="6.09304">
        <ele>2048.1841220036</ele>
        <time>2020-02-09T11:03:05Z</time>
      </trkpt>
      <trkpt lat="45.13908" lon="6.09336">
        <ele>2050.1828883551</ele>
        <time>2020-02-09T11:03:34Z</time>
      </trkpt>
      <trkpt lat="45.1389" lon="6.09357">
        <ele>2049.1813133955</ele>
        <time>2020-02-09T11:04:04Z</time>
      </trkpt>
      <trkpt lat="45.13872" lon="6.0937">
        <ele>2048.1800859496</ele>
        <time>2020-02-09T11:04:33Z</time>
      </trkpt>
      <trkpt lat="45.13855" lon="6.09388">
        <ele>2047.1786969006</ele>
        <time>2020-02-09T11:05:02Z</time>
      </trkpt>
      <trkpt lat="45.13847" lon="6.09385">
        <ele>2044.1784806475</ele>
        <time>2020-02-09T11:05:52Z</time>
      </trkpt>
    </trkseg>
  </trk>
  <trk>
    <name><![CDATA[Retour station Oz]]></name>
    <extensions>
      <line xmlns="http://www.topografix.com/GPX/gpx_style/0/2">
        <color>00FF00</color>
        <width>4</width>
      </line>
    </extensions>
    <trkseg>
      <trkpt lat="45.13843" lon="6.0938">
        <ele>2047.178520713</ele>
        <time>2020-02-09T11:16:28Z</time>
      </trkpt>
      <trkpt lat="45.13825" lon="6.09375">
        <ele>2042.1779978499</ele>
        <time>2020-02-09T11:18:25Z</time>
      </trkpt>
      <trkpt lat="45.1379" lon="6.09366">
        <ele>2041.176989004</ele>
        <time>2020-02-09T11:18:54Z</time>
      </trkpt>
      <trkpt lat="45.13768" lon="6.09358">
        <ele>2041.1763871834</ele>
        <time>2020-02-09T11:19:23Z</time>
      </trkpt>
      <trkpt lat="45.1375" lon="6.09355">
        <ele>2043.1757924035</ele>
        <time>2020-02-09T11:20:24Z</time>
      </trkpt>
      <trkpt lat="45.13724" lon="6.09347">
        <ele>2044.1750457436</ele>
        <time>2020-02-09T11:20:52Z</time>
      </trkpt>
      <trkpt lat="45.13687" lon="6.0934">
        <ele>2044.1738583632</ele>
        <time>2020-02-09T11:21:22Z</time>
      </trkpt>
      <trkpt lat="45.13658" lon="6.09338">
        <ele>2044.1728233658</ele>
        <time>2020-02-09T11:21:51Z</time>
      </trkpt>
      <trkpt lat="45.13633" lon="6.09337">
        <ele>2047.1718358099</ele>
        <time>2020-02-09T11:22:20Z</time>
      </trkpt>
      <trkpt lat="45.13603" lon="6.09346">
        <ele>2050.1702630296</ele>
        <time>2020-02-09T11:22:49Z</time>
      </trkpt>
      <trkpt lat="45.13576" lon="6.09341">
        <ele>2048.1693836004</ele>
        <time>2020-02-09T11:23:18Z</time>
      </trkpt>
      <trkpt lat="45.13559" lon="6.09337">
        <ele>2049.1688917503</ele>
        <time>2020-02-09T11:23:56Z</time>
      </trkpt>
      <trkpt lat="45.13528" lon="6.09323">
        <ele>2049.1682138219</ele>
        <time>2020-02-09T11:24:25Z</time>
      </trkpt>
      <trkpt lat="45.13504" lon="6.09322">
        <ele>2050.1672703549</ele>
        <time>2020-02-09T11:24:54Z</time>
      </trkpt>
      <trkpt lat="45.13456" lon="6.09302">
        <ele>2043.1661478505</ele>
        <time>2020-02-09T11:25:23Z</time>
      </trkpt>
      <trkpt lat="45.13426" lon="6.0929">
        <ele>2043.1654620431</ele>
        <time>2020-02-09T11:25:53Z</time>
      </trkpt>
      <trkpt lat="45.13401" lon="6.09287">
        <ele>2047.1645474099</ele>
        <time>2020-02-09T11:26:22Z</time>
      </trkpt>
      <trkpt lat="45.1338" lon="6.09285">
        <ele>2055.1637925357</ele>
        <time>2020-02-09T11:26:51Z</time>
      </trkpt>
      <trkpt lat="45.13358" lon="6.09281">
        <ele>2060.1631025374</ele>
        <time>2020-02-09T11:27:20Z</time>
      </trkpt>
      <trkpt lat="45.13333" lon="6.09281">
        <ele>2065.1620806158</ele>
        <time>2020-02-09T11:27:49Z</time>
      </trkpt>
      <trkpt lat="45.133" lon="6.09266">
        <ele>2067.1613651365</ele>
        <time>2020-02-09T11:28:18Z</time>
      </trkpt>
      <trkpt lat="45.13269" lon="6.09258">
        <ele>2066.1604479887</ele>
        <time>2020-02-09T11:28:47Z</time>
      </trkpt>
      <trkpt lat="45.1324" lon="6.09249">
        <ele>2067.1596582457</ele>
        <time>2020-02-09T11:29:16Z</time>
      </trkpt>
      <trkpt lat="45.13214" lon="6.09238">
        <ele>2068.1590544134</ele>
        <time>2020-02-09T11:29:45Z</time>
      </trkpt>
      <trkpt lat="45.13198" lon="6.09222">
        <ele>2074.1590309441</ele>
        <time>2020-02-09T11:30:14Z</time>
      </trkpt>
      <trkpt lat="45.13176" lon="6.09221">
        <ele>2074.1582200788</ele>
        <time>2020-02-09T11:30:43Z</time>
      </trkpt>
      <trkpt lat="45.13151" lon="6.09213">
        <ele>2076.1575079523</ele>
        <time>2020-02-09T11:31:12Z</time>
      </trkpt>
      <trkpt lat="45.13128" lon="6.09201">
        <ele>2082.1570725963</ele>
        <time>2020-02-09T11:31:42Z</time>
      </trkpt>
      <trkpt lat="45.13108" lon="6.09183">
        <ele>2084.1570261605</ele>
        <time>2020-02-09T11:32:11Z</time>
      </trkpt>
      <trkpt lat="45.13083" lon="6.09165">
        <ele>2086.1567138508</ele>
        <time>2020-02-09T11:32:41Z</time>
      </trkpt>
      <trkpt lat="45.13057" lon="6.09146">
        <ele>2091.1564290337</ele>
        <time>2020-02-09T11:33:11Z</time>
      </trkpt>
      <trkpt lat="45.13035" lon="6.09136">
        <ele>2093.1559797637</ele>
        <time>2020-02-09T11:33:40Z</time>
      </trkpt>
      <trkpt lat="45.13016" lon="6.0913">
        <ele>2094.1554205231</ele>
        <time>2020-02-09T11:34:09Z</time>
      </trkpt>
      <trkpt lat="45.12995" lon="6.0913">
        <ele>2096.1545925587</ele>
        <time>2020-02-09T11:34:39Z</time>
      </trkpt>
      <trkpt lat="45.12979" lon="6.09139">
        <ele>2100.1535696313</ele>
        <time>2020-02-09T11:35:15Z</time>
      </trkpt>
      <trkpt lat="45.12956" lon="6.09154">
        <ele>2103.1520789936</ele>
        <time>2020-02-09T11:35:45Z</time>
      </trkpt>
      <trkpt lat="45.12935" lon="6.09157">
        <ele>2107.1510947905</ele>
        <time>2020-02-09T11:36:14Z</time>
      </trkpt>
      <trkpt lat="45.12908" lon="6.09158">
        <ele>2108.1499687657</ele>
        <time>2020-02-09T11:36:44Z</time>
      </trkpt>
      <trkpt lat="45.12876" lon="6.09147">
        <ele>2109.1491532065</ele>
        <time>2020-02-09T11:37:14Z</time>
      </trkpt>
      <trkpt lat="45.12841" lon="6.09139">
        <ele>2111.1480761319</ele>
        <time>2020-02-09T11:37:44Z</time>
      </trkpt>
      <trkpt lat="45.12803" lon="6.09137">
        <ele>2109.1466548964</ele>
        <time>2020-02-09T11:38:13Z</time>
      </trkpt>
      <trkpt lat="45.12764" lon="6.0913">
        <ele>2105.1453696154</ele>
        <time>2020-02-09T11:38:43Z</time>
      </trkpt>
      <trkpt lat="45.1273" lon="6.0912">
        <ele>2106.1444199458</ele>
        <time>2020-02-09T11:39:13Z</time>
      </trkpt>
      <trkpt lat="45.12698" lon="6.09115">
        <ele>2104.1433153786</ele>
        <time>2020-02-09T11:39:43Z</time>
      </trkpt>
      <trkpt lat="45.12669" lon="6.09111">
        <ele>2105.1423070356</ele>
        <time>2020-02-09T11:40:12Z</time>
      </trkpt>
      <trkpt lat="45.12638" lon="6.09107">
        <ele>2106.1412284523</ele>
        <time>2020-02-09T11:40:42Z</time>
      </trkpt>
      <trkpt lat="45.12613" lon="6.09107">
        <ele>2105.1402321793</ele>
        <time>2020-02-09T11:41:11Z</time>
      </trkpt>
      <trkpt lat="45.1259" lon="6.09106">
        <ele>2109.1393601261</ele>
        <time>2020-02-09T11:41:40Z</time>
      </trkpt>
      <trkpt lat="45.12573" lon="6.09104">
        <ele>2111.1387658492</ele>
        <time>2020-02-09T11:42:26Z</time>
      </trkpt>
      <trkpt lat="45.12541" lon="6.091">
        <ele>2111.1376453564</ele>
        <time>2020-02-09T11:42:55Z</time>
      </trkpt>
      <trkpt lat="45.12486" lon="6.09092">
        <ele>2104.1357590929</ele>
        <time>2020-02-09T11:43:24Z</time>
      </trkpt>
      <trkpt lat="45.12464" lon="6.09095">
        <ele>2104.1347490735</ele>
        <time>2020-02-09T11:43:54Z</time>
      </trkpt>
      <trkpt lat="45.12444" lon="6.09102">
        <ele>2107.1337092146</ele>
        <time>2020-02-09T11:44:23Z</time>
      </trkpt>
      <trkpt lat="45.12416" lon="6.09104">
        <ele>2112.1324861273</ele>
        <time>2020-02-09T11:44:53Z</time>
      </trkpt>
      <trkpt lat="45.12391" lon="6.09102">
        <ele>2116.1315671355</ele>
        <time>2020-02-09T11:45:22Z</time>
      </trkpt>
      <trkpt lat="45.12366" lon="6.09097">
        <ele>2120.1307814158</ele>
        <time>2020-02-09T11:45:52Z</time>
      </trkpt>
      <trkpt lat="45.12337" lon="6.09093">
        <ele>2121.129766535</ele>
        <time>2020-02-09T11:46:21Z</time>
      </trkpt>
      <trkpt lat="45.12308" lon="6.09094">
        <ele>2122.1285719462</ele>
        <time>2020-02-09T11:46:50Z</time>
      </trkpt>
      <trkpt lat="45.12281" lon="6.09093">
        <ele>2125.1274945363</ele>
        <time>2020-02-09T11:47:20Z</time>
      </trkpt>
      <trkpt lat="45.12261" lon="6.09082">
        <ele>2127.1271401495</ele>
        <time>2020-02-09T11:47:49Z</time>
      </trkpt>
      <trkpt lat="45.12234" lon="6.09056">
        <ele>2131.1271538958</ele>
        <time>2020-02-09T11:48:19Z</time>
      </trkpt>
      <trkpt lat="45.12199" lon="6.09029">
        <ele>2130.1267974973</ele>
        <time>2020-02-09T11:48:49Z</time>
      </trkpt>
      <trkpt lat="45.12182" lon="6.09024">
        <ele>2127.1263395101</ele>
        <time>2020-02-09T11:49:35Z</time>
      </trkpt>
      <trkpt lat="45.12156" lon="6.09036">
        <ele>2125.1248181947</ele>
        <time>2020-02-09T11:50:04Z</time>
      </trkpt>
      <trkpt lat="45.1214" lon="6.09092">
        <ele>2123.1219012924</ele>
        <time>2020-02-09T11:50:34Z</time>
      </trkpt>
      <trkpt lat="45.12097" lon="6.09131">
        <ele>2118.1186667159</ele>
        <time>2020-02-09T11:51:03Z</time>
      </trkpt>
      <trkpt lat="45.1206" lon="6.09125">
        <ele>2117.1174027249</ele>
        <time>2020-02-09T11:51:33Z</time>
      </trkpt>
      <trkpt lat="45.12041" lon="6.09124">
        <ele>2116.11668339</ele>
        <time>2020-02-09T11:52:03Z</time>
      </trkpt>
      <trkpt lat="45.12018" lon="6.09124">
        <ele>2122.1157467961</ele>
        <time>2020-02-09T11:52:33Z</time>
      </trkpt>
      <trkpt lat="45.12" lon="6.09116">
        <ele>2123.1153753102</ele>
        <time>2020-02-09T11:53:01Z</time>
      </trkpt>
      <trkpt lat="45.11985" lon="6.09105">
        <ele>2122.1151778325</ele>
        <time>2020-02-09T11:54:29Z</time>
      </trkpt>
      <trkpt lat="45.11959" lon="6.09088">
        <ele>2120.1148502678</ele>
        <time>2020-02-09T11:54:59Z</time>
      </trkpt>
      <trkpt lat="45.11935" lon="6.09076">
        <ele>2119.1143542267</ele>
        <time>2020-02-09T11:55:28Z</time>
      </trkpt>
      <trkpt lat="45.1192" lon="6.0905">
        <ele>2118.1148026586</ele>
        <time>2020-02-09T11:55:57Z</time>
      </trkpt>
      <trkpt lat="45.11911" lon="6.09021">
        <ele>2120.1155841872</ele>
        <time>2020-02-09T11:56:27Z</time>
      </trkpt>
      <trkpt lat="45.11905" lon="6.09009">
        <ele>2120.115820054</ele>
        <time>2020-02-09T11:59:38Z</time>
      </trkpt>
      <trkpt lat="45.11902" lon="6.0901">
        <ele>2120.1156763881</ele>
        <time>2020-02-09T12:10:38Z</time>
      </trkpt>
      <trkpt lat="45.11909" lon="6.09033">
        <ele>2121.1150217615</ele>
        <time>2020-02-09T12:12:35Z</time>
      </trkpt>
      <trkpt lat="45.11892" lon="6.09028">
        <ele>2117.1145706475</ele>
        <time>2020-02-09T12:13:17Z</time>
      </trkpt>
      <trkpt lat="45.1185" lon="6.08974">
        <ele>2108.1150227673</ele>
        <time>2020-02-09T12:13:47Z</time>
      </trkpt>
      <trkpt lat="45.11805" lon="6.08921">
        <ele>2096.1153820157</ele>
        <time>2020-02-09T12:14:16Z</time>
      </trkpt>
      <trkpt lat="45.11771" lon="6.08878">
        <ele>2084.115710251</ele>
        <time>2020-02-09T12:14:45Z</time>
      </trkpt>
      <trkpt lat="45.11764" lon="6.08855">
        <ele>2080.116382312</ele>
        <time>2020-02-09T12:15:47Z</time>
      </trkpt>
      <trkpt lat="45.11761" lon="6.08812">
        <ele>2083.1179819144</ele>
        <time>2020-02-09T12:16:16Z</time>
      </trkpt>
      <trkpt lat="45.11727" lon="6.08772">
        <ele>2080.118172016</ele>
        <time>2020-02-09T12:16:46Z</time>
      </trkpt>
      <trkpt lat="45.11695" lon="6.08757">
        <ele>2075.1175375059</ele>
        <time>2020-02-09T12:17:15Z</time>
      </trkpt>
      <trkpt lat="45.11663" lon="6.08749">
        <ele>2075.1165321805</ele>
        <time>2020-02-09T12:17:45Z</time>
      </trkpt>
      <trkpt lat="45.11637" lon="6.08751">
        <ele>2075.1154584587</ele>
        <time>2020-02-09T12:18:14Z</time>
      </trkpt>
      <trkpt lat="45.11623" lon="6.08735">
        <ele>2079.1155000329</ele>
        <time>2020-02-09T12:18:44Z</time>
      </trkpt>
      <trkpt lat="45.11611" lon="6.08717">
        <ele>2081.1157536693</ele>
        <time>2020-02-09T12:19:22Z</time>
      </trkpt>
      <trkpt lat="45.11599" lon="6.08698">
        <ele>2083.1160560884</ele>
        <time>2020-02-09T12:20:03Z</time>
      </trkpt>
      <trkpt lat="45.1157" lon="6.08672">
        <ele>2084.1159092374</ele>
        <time>2020-02-09T12:20:33Z</time>
      </trkpt>
      <trkpt lat="45.1154" lon="6.08645">
        <ele>2086.1158002727</ele>
        <time>2020-02-09T12:21:02Z</time>
      </trkpt>
      <trkpt lat="45.11513" lon="6.08618">
        <ele>2085.1157756299</ele>
        <time>2020-02-09T12:21:31Z</time>
      </trkpt>
      <trkpt lat="45.11477" lon="6.08597">
        <ele>2086.115204487</ele>
        <time>2020-02-09T12:22:01Z</time>
      </trkpt>
      <trkpt lat="45.11445" lon="6.08586">
        <ele>2082.1143423244</ele>
        <time>2020-02-09T12:22:30Z</time>
      </trkpt>
      <trkpt lat="45.11405" lon="6.08569">
        <ele>2080.1134251766</ele>
        <time>2020-02-09T12:22:59Z</time>
      </trkpt>
      <trkpt lat="45.1137" lon="6.08558">
        <ele>2077.1124939471</ele>
        <time>2020-02-09T12:23:28Z</time>
      </trkpt>
      <trkpt lat="45.1134" lon="6.08537">
        <ele>2076.1121162586</ele>
        <time>2020-02-09T12:23:57Z</time>
      </trkpt>
      <trkpt lat="45.11313" lon="6.08512">
        <ele>2076.1120243929</ele>
        <time>2020-02-09T12:24:27Z</time>
      </trkpt>
      <trkpt lat="45.11293" lon="6.08493">
        <ele>2075.1119994149</ele>
        <time>2020-02-09T12:24:57Z</time>
      </trkpt>
      <trkpt lat="45.1125" lon="6.08454">
        <ele>2074.1118582636</ele>
        <time>2020-02-09T12:25:26Z</time>
      </trkpt>
      <trkpt lat="45.11215" lon="6.08423">
        <ele>2071.1117008515</ele>
        <time>2020-02-09T12:25:55Z</time>
      </trkpt>
      <trkpt lat="45.11173" lon="6.0839">
        <ele>2066.1112921499</ele>
        <time>2020-02-09T12:26:25Z</time>
      </trkpt>
      <trkpt lat="45.11158" lon="6.08381">
        <ele>2063.1110950075</ele>
        <time>2020-02-09T12:36:10Z</time>
      </trkpt>
      <trkpt lat="45.10976" lon="6.08291">
        <ele>2052.1073992588</ele>
        <time>2020-02-09T12:36:39Z</time>
      </trkpt>
      <trkpt lat="45.10881" lon="6.08208">
        <ele>2041.1069213226</ele>
        <time>2020-02-09T12:37:08Z</time>
      </trkpt>
      <trkpt lat="45.10862" lon="6.08194">
        <ele>2038.1067389324</ele>
        <time>2020-02-09T12:37:37Z</time>
      </trkpt>
      <trkpt lat="45.10865" lon="6.08129">
        <ele>2036.1094501428</ele>
        <time>2020-02-09T12:38:06Z</time>
      </trkpt>
      <trkpt lat="45.1083" lon="6.07991">
        <ele>2009.1135535873</ele>
        <time>2020-02-09T12:38:36Z</time>
      </trkpt>
      <trkpt lat="45.10824" lon="6.07968">
        <ele>1993.1142352037</ele>
        <time>2020-02-09T12:41:07Z</time>
      </trkpt>
      <trkpt lat="45.10856" lon="6.07909">
        <ele>1973.1178999394</ele>
        <time>2020-02-09T12:41:36Z</time>
      </trkpt>
      <trkpt lat="45.10931" lon="6.07898">
        <ele>1940.12133082</ele>
        <time>2020-02-09T12:42:05Z</time>
      </trkpt>
      <trkpt lat="45.10978" lon="6.07839">
        <ele>1919.1255589873</ele>
        <time>2020-02-09T12:42:34Z</time>
      </trkpt>
      <trkpt lat="45.11148" lon="6.07752">
        <ele>1878.1358512938</ele>
        <time>2020-02-09T12:43:03Z</time>
      </trkpt>
      <trkpt lat="45.11331" lon="6.07785">
        <ele>1840.1418192089</ele>
        <time>2020-02-09T12:43:32Z</time>
      </trkpt>
      <trkpt lat="45.1134" lon="6.07767">
        <ele>1841.1429551244</ele>
        <time>2020-02-09T12:44:32Z</time>
      </trkpt>
      <trkpt lat="45.11347" lon="6.07696">
        <ele>1834.1460559256</ele>
        <time>2020-02-09T12:45:01Z</time>
      </trkpt>
      <trkpt lat="45.11408" lon="6.0763">
        <ele>1807.1510973051</ele>
        <time>2020-02-09T12:45:30Z</time>
      </trkpt>
      <trkpt lat="45.11565" lon="6.07598">
        <ele>1756.1586629786</ele>
        <time>2020-02-09T12:46:00Z</time>
      </trkpt>
      <trkpt lat="45.11801" lon="6.07643">
        <ele>1721.1662998982</ele>
        <time>2020-02-09T12:46:29Z</time>
      </trkpt>
      <trkpt lat="45.11909" lon="6.0761">
        <ele>1692.1719833314</ele>
        <time>2020-02-09T12:46:58Z</time>
      </trkpt>
      <trkpt lat="45.12009" lon="6.07578">
        <ele>1653.1772153154</ele>
        <time>2020-02-09T12:47:28Z</time>
      </trkpt>
      <trkpt lat="45.12044" lon="6.07553">
        <ele>1642.179657802</ele>
        <time>2020-02-09T12:47:57Z</time>
      </trkpt>
      <trkpt lat="45.12143" lon="6.07426">
        <ele>1597.1886978522</ele>
        <time>2020-02-09T12:48:27Z</time>
      </trkpt>
      <trkpt lat="45.12295" lon="6.07384">
        <ele>1547.1964474246</ele>
        <time>2020-02-09T12:48:57Z</time>
      </trkpt>
      <trkpt lat="45.12383" lon="6.07414">
        <ele>1524.1987319961</ele>
        <time>2020-02-09T12:49:27Z</time>
      </trkpt>
      <trkpt lat="45.1237" lon="6.074">
        <ele>1521.1988317408</ele>
        <time>2020-02-09T12:50:23Z</time>
      </trkpt>
      <trkpt lat="45.12302" lon="6.07198">
        <ele>1488.2041621283</ele>
        <time>2020-02-09T12:50:53Z</time>
      </trkpt>
      <trkpt lat="45.12411" lon="6.07093">
        <ele>1445.2127111666</ele>
        <time>2020-02-09T12:51:22Z</time>
      </trkpt>
      <trkpt lat="45.1268" lon="6.07251">
        <ele>1399.2171321176</ele>
        <time>2020-02-09T12:51:51Z</time>
      </trkpt>
      <trkpt lat="45.12826" lon="6.07299">
        <ele>1386.2211016193</ele>
        <time>2020-02-09T12:52:21Z</time>
      </trkpt>
      <trkpt lat="45.12936" lon="6.07286">
        <ele>1381.2259979919</ele>
        <time>2020-02-09T12:52:50Z</time>
      </trkpt>
      <trkpt lat="45.12954" lon="6.07295">
        <ele>1377.2263600901</ele>
        <time>2020-02-09T12:53:20Z</time>
      </trkpt>
      <trkpt lat="45.12969" lon="6.07304">
        <ele>1373.2265748344</ele>
        <time>2020-02-09T12:57:26Z</time>
      </trkpt>
      <trkpt lat="45.12991" lon="6.07337">
        <ele>1370.2261755206</ele>
        <time>2020-02-09T12:57:56Z</time>
      </trkpt>
      <trkpt lat="45.13009" lon="6.07367">
        <ele>1371.225664895</ele>
        <time>2020-02-09T12:58:25Z</time>
      </trkpt>
      <trkpt lat="45.13037" lon="6.07358">
        <ele>1374.2271749787</ele>
        <time>2020-02-09T12:58:54Z</time>
      </trkpt>
      <trkpt lat="45.13061" lon="6.07345">
        <ele>1373.2286488526</ele>
        <time>2020-02-09T12:59:23Z</time>
      </trkpt>
      <trkpt lat="45.13089" lon="6.07349">
        <ele>1380.229603719</ele>
        <time>2020-02-09T12:59:53Z</time>
      </trkpt>
      <trkpt lat="45.13117" lon="6.07358">
        <ele>1380.2303502113</ele>
        <time>2020-02-09T13:00:23Z</time>
      </trkpt>
      <trkpt lat="45.13146" lon="6.07385">
        <ele>1380.2304150872</ele>
        <time>2020-02-09T13:00:52Z</time>
      </trkpt>
      <trkpt lat="45.13164" lon="6.07423">
        <ele>1381.2296454608</ele>
        <time>2020-02-09T13:01:21Z</time>
      </trkpt>
      <trkpt lat="45.13176" lon="6.07459">
        <ele>1381.2286941148</ele>
        <time>2020-02-09T13:01:51Z</time>
      </trkpt>
      <trkpt lat="45.13194" lon="6.07491">
        <ele>1379.2281120755</ele>
        <time>2020-02-09T13:02:20Z</time>
      </trkpt>
      <trkpt lat="45.13215" lon="6.07523">
        <ele>1385.2276663259</ele>
        <time>2020-02-09T13:02:50Z</time>
      </trkpt>
      <trkpt lat="45.1324" lon="6.07547">
        <ele>1384.2277236581</ele>
        <time>2020-02-09T13:03:19Z</time>
      </trkpt>
      <trkpt lat="45.13269" lon="6.07562">
        <ele>1387.2282745168</ele>
        <time>2020-02-09T13:03:48Z</time>
      </trkpt>
      <trkpt lat="45.13291" lon="6.07567">
        <ele>1391.2289329991</ele>
        <time>2020-02-09T13:04:17Z</time>
      </trkpt>
      <trkpt lat="45.13324" lon="6.07567">
        <ele>1386.2302707508</ele>
        <time>2020-02-09T13:04:46Z</time>
      </trkpt>
      <trkpt lat="45.13326" lon="6.07565">
        <ele>1385.2304657139</ele>
        <time>2020-02-09T13:06:23Z</time>
      </trkpt>
    </trkseg>
  </trk>
</gpx>